Etusivu
METAR-TAF:

METAR-TAF

Lentoasemat :

Bay City, Texas, Yhdysvallat

Leveyspiiri: 28-58-23N, Pituuspiiri: 095-51-48W, korkeus merenpinnasta: 14 m

Tämänhetkinen sää

Tämä raportti tehtiin 26 minuuttia sitten, kello 23.55 UTC
Tuuli 9 kn idästä
Lämpötila 25°C
Kosteus 89%
Ilmanpaine 1010 hPa
Näkyvyys: 16.1 km
Hajanaisia pilviä 800 ft:n korkeudessa
Hajonneita pilviä 2400 ft:n korkeudessa
Pilvistä 6000 ft:n korkeudessa
heikkoa tihkusadetta

METAR: KBYY 182355Z AUTO 08009KT 10SM -DZ SCT008 BKN024 OVC060 25/23 A2983 RMK AO2 P0002 T02500240

Aika: 19:21 (00:21 UTC)


TAF: puuttuu

Säähavainnot ja -ennusteet yli 4000 lentoasemalta (METAR- ja TAF-raportit).

Käytössä olevat sääasemat on merkitty karttaan keltaisilla ja punaisilla pisteillä.

Aseta hiiri pisteen päälle nähdäksesi sääaseman nimen.

Klikkaa sitten nähdäksesi säähavainnot ja -ennusteet.

Kartan vaihtaminen: klikkaa mustalla rastilla varustettuja vihreitä pisteitä, niin voit zoomata sisään; viivalla varustettua vihreää pistettä, niin voit zoomata ulos tai vihreitä nuolia, niin pääset viereisille kartoille.


METAR-TAF: